Terminal Aerodrome Forecast
Issued by NWS Sterling, VA

Home | Current Version | Previous Version | Text Only | Print | Product List | Glossary On
Versions: 1 2 3 4 5 6 7 8 9 10 11 12 13 14 15 16
000
FTUS41 KLWX 260500
TAFCHO
TAF
KCHO 260537Z 2606/2706 02005KT P6SM -RA BKN090 OVC150
     FM261000 02009KT P6SM -RA OVC015
     FM261200 02009KT 2SM -RASN OVC008
     FM261500 01008KT 2SM -RASN OVC003
     FM261800 35007KT 2SM -RASN SCT003 OVC008
     FM262100 32007KT P6SM OVC008
     FM270100 00000KT P6SM SCT008 BKN050=

USA.gov is the U.S. government's official web portal to all federal, state and local government web resources and services.